createdAt,value
2019-05-25T00:00:24.339Z,3.40
2019-05-25T00:01:24.411Z,3.20
2019-05-25T00:02:24.307Z,2.80
2019-05-25T00:03:24.341Z,3.30
2019-05-25T00:04:24.418Z,3.00
2019-05-25T00:05:24.366Z,3.40
2019-05-25T00:06:25.058Z,3.50
2019-05-25T00:07:24.526Z,3.30
2019-05-25T00:08:24.630Z,3.70
2019-05-25T00:09:24.416Z,3.20
2019-05-25T00:10:24.528Z,3.10
2019-05-25T00:11:24.433Z,3.60
2019-05-25T00:12:24.448Z,3.20
2019-05-25T00:13:24.531Z,3.20
2019-05-25T00:14:24.548Z,3.10
2019-05-25T00:15:24.507Z,3.30
2019-05-25T00:16:24.607Z,3.40
2019-05-25T00:17:24.516Z,3.40
2019-05-25T00:18:24.530Z,3.50
2019-05-25T00:19:24.574Z,3.10
2019-05-25T00:20:24.567Z,3.30
2019-05-25T00:21:24.579Z,3.40
2019-05-25T00:22:24.674Z,3.40
2019-05-25T00:23:24.842Z,3.30
2019-05-25T00:24:24.626Z,3.10
2019-05-25T00:25:24.671Z,3.40
2019-05-25T00:26:24.755Z,3.60
2019-05-25T00:27:24.667Z,3.00
2019-05-25T00:28:24.709Z,3.40
2019-05-25T00:29:24.696Z,3.10
2019-05-25T00:30:24.774Z,3.10
2019-05-25T00:31:24.729Z,3.20
2019-05-25T00:32:24.732Z,2.90
2019-05-25T00:33:24.762Z,3.10
2019-05-25T00:34:25.225Z,3.30
2019-05-25T00:35:24.775Z,3.20
2019-05-25T00:36:25.247Z,3.40
2019-05-25T00:37:24.879Z,3.10
2019-05-25T00:38:24.835Z,3.50
2019-05-25T00:39:24.834Z,3.20
2019-05-25T00:40:24.851Z,2.90
2019-05-25T00:41:24.864Z,3.40
2019-05-25T00:42:24.867Z,3.20
2019-05-25T00:43:24.887Z,2.90
2019-05-25T00:44:24.988Z,3.10
2019-05-25T00:45:25.101Z,3.50
2019-05-25T00:46:24.969Z,2.90
2019-05-25T00:47:24.951Z,3.10
2019-05-25T00:48:24.953Z,3.00
2019-05-25T00:49:24.963Z,3.20
2019-05-25T00:50:24.999Z,3.50
2019-05-25T00:51:25.204Z,3.60
2019-05-25T00:52:25.231Z,3.50
2019-05-25T00:53:25.016Z,3.40
2019-05-25T00:54:27.891Z,3.20
2019-05-25T00:55:25.394Z,3.50
2019-05-25T00:56:25.071Z,3.30
2019-05-25T00:57:25.208Z,3.60
2019-05-25T00:58:25.108Z,3.00
2019-05-25T00:59:25.105Z,3.60
2019-05-25T01:00:25.116Z,3.30
2019-05-25T01:01:25.294Z,3.40
2019-05-25T01:02:25.146Z,3.80
2019-05-25T01:03:25.332Z,3.20
2019-05-25T01:04:25.357Z,3.20
2019-05-25T01:05:25.272Z,3.10
2019-05-25T01:06:26.331Z,3.10
2019-05-25T01:07:25.224Z,3.30
2019-05-25T01:08:25.235Z,3.10
2019-05-25T01:09:25.283Z,3.40
2019-05-25T01:10:25.279Z,2.90
2019-05-25T01:12:25.432Z,3.20
2019-05-25T01:14:25.319Z,3.40
2019-05-25T01:15:25.381Z,3.10
2019-05-25T01:16:25.357Z,3.50
2019-05-25T01:17:25.365Z,3.50
2019-05-25T01:18:25.506Z,3.70
2019-05-25T01:19:25.878Z,3.20
2019-05-25T01:20:25.405Z,3.60
2019-05-25T01:21:25.410Z,3.50
2019-05-25T01:22:25.422Z,3.20
2019-05-25T01:23:25.461Z,3.50
2019-05-25T01:24:25.486Z,3.70
2019-05-25T01:25:25.463Z,3.80
2019-05-25T01:26:26.013Z,3.20
2019-05-25T01:28:25.887Z,3.20
2019-05-25T01:29:25.522Z,3.40
2019-05-25T01:32:25.582Z,3.30
2019-05-25T01:33:25.687Z,3.80
2019-05-25T01:34:25.587Z,3.40
2019-05-25T01:35:25.624Z,3.20
2019-05-25T01:36:25.628Z,3.50
2019-05-25T01:37:26.320Z,3.50
2019-05-25T01:38:25.660Z,3.60
2019-05-25T01:39:25.673Z,3.50
2019-05-25T01:40:25.677Z,3.60
2019-05-25T01:41:25.704Z,3.70
2019-05-25T01:42:25.703Z,3.90
2019-05-25T01:43:25.767Z,3.90
2019-05-25T01:44:25.757Z,4.50
2019-05-25T01:45:25.744Z,4.30
2019-05-25T01:46:25.763Z,3.90
2019-05-25T01:47:25.876Z,3.80
2019-05-25T01:48:26.976Z,4.50
2019-05-25T01:50:25.911Z,4.10
2019-05-25T01:51:26.058Z,4.20
2019-05-25T01:52:25.844Z,4.30
2019-05-25T01:53:25.860Z,4.20
2019-05-25T01:54:25.876Z,4.50
2019-05-25T01:55:25.880Z,4.50
2019-05-25T01:56:25.897Z,4.40
2019-05-25T01:57:25.920Z,4.10
2019-05-25T01:59:26.488Z,4.70
2019-05-25T02:00:26.430Z,4.30
2019-05-25T02:01:27.386Z,4.40
2019-05-25T02:02:25.981Z,4.10
2019-05-25T02:04:26.092Z,4.30
2019-05-25T02:05:26.022Z,4.20
2019-05-25T02:06:26.039Z,4.40
2019-05-25T02:07:26.491Z,4.20
2019-05-25T02:08:26.069Z,4.50
2019-05-25T02:09:26.076Z,4.30
2019-05-25T02:10:26.098Z,4.20
2019-05-25T02:11:26.124Z,4.40
2019-05-25T02:13:26.138Z,4.20
2019-05-25T02:14:26.142Z,3.80
2019-05-25T02:15:26.177Z,4.20
2019-05-25T02:16:26.188Z,3.80
2019-05-25T02:17:26.186Z,4.30
2019-05-25T02:18:26.204Z,4.50
2019-05-25T02:19:26.274Z,4.30
2019-05-25T02:20:26.315Z,4.40
2019-05-25T02:21:26.273Z,4.00
2019-05-25T02:23:26.300Z,4.30
2019-05-25T02:24:26.282Z,4.00
2019-05-25T02:25:26.298Z,4.30
2019-05-25T02:26:26.320Z,3.80
2019-05-25T02:27:26.385Z,3.70
2019-05-25T02:29:26.351Z,3.70
2019-05-25T02:30:26.388Z,4.00
2019-05-25T02:31:26.394Z,4.00
2019-05-25T02:32:26.401Z,4.00
2019-05-25T02:33:26.407Z,3.90
2019-05-25T02:34:26.633Z,3.90
2019-05-25T02:35:26.794Z,3.90
2019-05-25T02:36:26.965Z,4.10
2019-05-25T02:37:26.482Z,4.00
2019-05-25T02:38:26.494Z,3.80
2019-05-25T02:39:26.489Z,3.40
2019-05-25T02:40:26.830Z,4.00
2019-05-25T02:41:26.528Z,3.90
2019-05-25T02:42:26.538Z,3.70
2019-05-25T02:43:26.546Z,4.00
2019-05-25T02:44:26.953Z,3.70
2019-05-25T02:45:26.641Z,3.60
2019-05-25T02:46:27.032Z,3.60
2019-05-25T02:47:26.623Z,3.70
2019-05-25T02:48:26.614Z,4.00
2019-05-25T02:49:26.694Z,3.70
2019-05-25T02:50:26.695Z,4.10
2019-05-25T02:51:26.654Z,3.70
2019-05-25T02:52:26.668Z,3.90
2019-05-25T02:54:26.859Z,4.10
2019-05-25T02:55:34.157Z,3.60
2019-05-25T02:56:26.917Z,3.30
2019-05-25T02:57:26.740Z,3.70
2019-05-25T02:58:26.755Z,4.10
2019-05-25T02:59:26.784Z,4.20
2019-05-25T03:00:27.344Z,3.90
2019-05-25T03:01:26.789Z,4.10
2019-05-25T03:02:26.805Z,4.10
2019-05-25T03:03:26.868Z,3.70
2019-05-25T03:04:26.963Z,3.90
2019-05-25T03:05:26.850Z,3.80
2019-05-25T03:07:26.870Z,4.20
2019-05-25T03:08:26.887Z,4.20
2019-05-25T03:09:26.904Z,3.70
2019-05-25T03:10:26.968Z,4.00
2019-05-25T03:11:26.935Z,3.90
2019-05-25T03:12:26.991Z,3.80
2019-05-25T03:13:26.961Z,4.40
2019-05-25T03:14:26.973Z,4.40
2019-05-25T03:15:27.003Z,4.10
2019-05-25T03:16:26.999Z,4.40
2019-05-25T03:17:27.014Z,3.80
2019-05-25T03:18:27.032Z,4.20
2019-05-25T03:19:27.067Z,3.60
2019-05-25T03:20:27.081Z,4.30
2019-05-25T03:21:27.064Z,4.30
2019-05-25T03:22:27.089Z,4.10
2019-05-25T03:23:27.144Z,3.90
2019-05-25T03:24:27.510Z,4.10
2019-05-25T03:25:27.243Z,4.80
2019-05-25T03:26:27.314Z,4.10
2019-05-25T03:27:27.496Z,4.20
2019-05-25T03:28:27.175Z,4.20
2019-05-25T03:29:27.428Z,4.00
2019-05-25T03:30:27.188Z,4.00
2019-05-25T03:31:27.225Z,4.00
2019-05-25T03:32:27.256Z,4.40
2019-05-25T03:33:27.231Z,4.10
2019-05-25T03:34:27.244Z,4.30
2019-05-25T03:35:27.607Z,4.60
2019-05-25T03:36:27.273Z,4.90
2019-05-25T03:37:27.285Z,4.90
2019-05-25T03:38:27.701Z,4.70
2019-05-25T03:39:27.316Z,4.60
2019-05-25T03:40:27.325Z,5.00
2019-05-25T03:41:27.335Z,4.70
2019-05-25T03:42:27.350Z,4.60
2019-05-25T03:43:27.363Z,4.40
2019-05-25T03:44:27.383Z,4.40
2019-05-25T03:45:27.398Z,5.10
2019-05-25T03:47:27.417Z,4.30
2019-05-25T03:48:27.484Z,4.30
2019-05-25T03:50:27.461Z,4.80
2019-05-25T03:51:28.080Z,4.60
2019-05-25T03:52:27.505Z,4.50
2019-05-25T03:53:27.536Z,4.00
2019-05-25T03:54:28.307Z,4.70
2019-05-25T03:55:27.549Z,4.50
2019-05-25T03:56:27.543Z,4.50
2019-05-25T03:57:27.595Z,4.40
2019-05-25T03:58:27.576Z,4.80
2019-05-25T03:59:27.582Z,4.20
2019-05-25T04:00:27.733Z,4.60
2019-05-25T04:01:27.625Z,4.30
2019-05-25T04:02:27.659Z,4.60
2019-05-25T04:03:27.652Z,4.60
2019-05-25T04:04:27.654Z,4.20
2019-05-25T04:05:27.773Z,4.20
2019-05-25T04:06:27.730Z,3.90
2019-05-25T04:07:27.691Z,4.20
2019-05-25T04:08:27.706Z,3.70
2019-05-25T04:09:27.716Z,3.70
2019-05-25T04:10:27.783Z,3.90
2019-05-25T04:11:27.800Z,4.10
2019-05-25T04:12:27.818Z,3.70
2019-05-25T04:13:27.772Z,4.00
2019-05-25T04:14:27.798Z,3.70
2019-05-25T04:15:27.808Z,4.30
2019-05-25T04:16:27.816Z,3.70
2019-05-25T04:17:27.828Z,3.80
2019-05-25T04:18:27.839Z,3.70
2019-05-25T04:19:27.861Z,3.90
2019-05-25T04:20:28.085Z,3.70
2019-05-25T04:22:27.896Z,3.60
2019-05-25T04:23:28.233Z,3.70
2019-05-25T04:24:27.936Z,3.80
2019-05-25T04:25:27.974Z,3.60
2019-05-25T04:26:27.950Z,3.50
2019-05-25T04:27:27.966Z,3.20
2019-05-25T04:28:27.989Z,3.30
2019-05-25T04:29:28.008Z,3.30
2019-05-25T04:30:28.369Z,3.40
2019-05-25T04:31:28.128Z,3.60
2019-05-25T04:32:28.099Z,3.30
2019-05-25T04:33:28.050Z,3.10
2019-05-25T04:34:28.112Z,3.50
2019-05-25T04:35:28.198Z,3.00
2019-05-25T04:37:28.309Z,3.00
2019-05-25T04:38:28.130Z,3.50
2019-05-25T04:39:29.112Z,3.20
2019-05-25T04:40:28.267Z,3.30
2019-05-25T04:41:28.156Z,3.30
2019-05-25T04:42:28.209Z,3.00
2019-05-25T04:43:28.498Z,3.30
2019-05-25T04:44:28.201Z,2.90
2019-05-25T04:45:28.217Z,3.20
2019-05-25T04:46:28.226Z,3.20
2019-05-25T04:47:28.243Z,3.40
2019-05-25T04:48:28.306Z,3.40
2019-05-25T04:49:28.276Z,3.00
2019-05-25T04:50:28.285Z,2.90
2019-05-25T04:51:28.352Z,2.80
2019-05-25T04:52:28.314Z,3.30
2019-05-25T04:53:28.325Z,3.70
2019-05-25T04:54:28.419Z,3.60
2019-05-25T04:55:28.398Z,3.50
2019-05-25T04:56:39.030Z,3.80
2019-05-25T04:57:28.546Z,3.80
2019-05-25T04:58:28.397Z,3.50
2019-05-25T04:59:28.416Z,3.90
2019-05-25T05:00:28.425Z,4.00
2019-05-25T05:01:28.437Z,3.70
2019-05-25T05:02:28.450Z,3.70
2019-05-25T05:03:28.493Z,3.50
2019-05-25T05:04:28.558Z,3.60
2019-05-25T05:05:28.493Z,3.80
2019-05-25T05:06:28.526Z,3.90
2019-05-25T05:07:29.384Z,3.60
2019-05-25T05:08:28.581Z,4.00
2019-05-25T05:09:28.624Z,3.20
2019-05-25T05:10:28.577Z,3.30
2019-05-25T05:11:29.013Z,3.20
2019-05-25T05:12:28.991Z,3.60
2019-05-25T05:13:28.599Z,3.20
2019-05-25T05:14:28.633Z,3.40
2019-05-25T05:15:28.635Z,3.30
2019-05-25T05:16:28.646Z,3.60
2019-05-25T05:17:28.656Z,3.40
2019-05-25T05:18:28.672Z,3.70
2019-05-25T05:19:28.683Z,3.40
2019-05-25T05:20:28.748Z,3.50
2019-05-25T05:21:28.721Z,3.50
2019-05-25T05:22:28.752Z,3.50
2019-05-25T05:23:28.744Z,3.60
2019-05-25T05:24:28.753Z,3.40
2019-05-25T05:25:28.764Z,3.50
2019-05-25T05:26:28.783Z,3.70
2019-05-25T05:27:28.942Z,3.70
2019-05-25T05:28:28.810Z,3.20
2019-05-25T05:29:28.819Z,3.30
2019-05-25T05:30:28.837Z,3.60
2019-05-25T05:31:29.085Z,3.30
2019-05-25T05:32:28.873Z,3.30
2019-05-25T05:33:28.888Z,3.60
2019-05-25T05:34:29.951Z,3.50
2019-05-25T05:35:28.918Z,3.20
2019-05-25T05:36:28.985Z,2.90
2019-05-25T05:37:29.042Z,3.50
2019-05-25T05:38:29.558Z,3.20
2019-05-25T05:39:29.339Z,3.20
2019-05-25T05:40:29.719Z,2.70
2019-05-25T05:41:31.126Z,3.20
2019-05-25T05:42:29.294Z,3.00
2019-05-25T05:43:29.164Z,3.00
2019-05-25T05:44:29.036Z,3.40
2019-05-25T05:45:29.046Z,3.50
2019-05-25T05:46:29.521Z,3.30
2019-05-25T05:47:29.073Z,3.40
2019-05-25T05:48:29.128Z,3.40
2019-05-25T05:49:29.498Z,2.90
2019-05-25T05:50:29.270Z,3.10
2019-05-25T05:51:29.127Z,3.00
2019-05-25T05:52:29.466Z,2.80
2019-05-25T05:53:29.155Z,3.00
2019-05-25T05:54:29.174Z,3.10
2019-05-25T05:55:29.187Z,2.80
2019-05-25T05:56:29.196Z,3.10
2019-05-25T05:57:29.232Z,3.00
2019-05-25T05:58:29.319Z,3.30
2019-05-25T05:59:29.243Z,3.30
2019-05-25T06:00:29.316Z,2.90
2019-05-25T06:01:29.429Z,3.00
2019-05-25T06:02:29.297Z,2.90
2019-05-25T06:04:29.308Z,3.20
2019-05-25T06:05:29.477Z,3.10
2019-05-25T06:06:29.343Z,2.70
2019-05-25T06:08:29.380Z,3.00
2019-05-25T06:09:29.424Z,3.30
2019-05-25T06:10:29.810Z,3.00
2019-05-25T06:11:29.587Z,2.80
2019-05-25T06:12:29.527Z,3.00
2019-05-25T06:13:29.433Z,3.30
2019-05-25T06:15:29.472Z,3.10
2019-05-25T06:16:29.487Z,3.00
2019-05-25T06:17:29.501Z,3.10
2019-05-25T06:18:29.503Z,3.00
2019-05-25T06:19:29.517Z,2.60
2019-05-25T06:20:29.662Z,3.30
2019-05-25T06:21:29.687Z,3.00
2019-05-25T06:22:29.557Z,2.80
2019-05-25T06:23:29.582Z,3.10
2019-05-25T06:24:30.154Z,2.90
2019-05-25T06:25:29.615Z,3.10
2019-05-25T06:26:29.669Z,2.60
2019-05-25T06:27:29.634Z,3.10
2019-05-25T06:28:29.654Z,2.80
2019-05-25T06:29:30.096Z,3.10
2019-05-25T06:30:30.708Z,3.00
2019-05-25T06:31:29.754Z,3.00
2019-05-25T06:32:29.711Z,3.30
2019-05-25T06:33:29.765Z,2.60
2019-05-25T06:34:29.726Z,2.80
2019-05-25T06:35:29.743Z,2.80
2019-05-25T06:36:29.775Z,2.60
2019-05-25T06:37:29.777Z,2.80
2019-05-25T06:38:29.853Z,2.70
2019-05-25T06:39:29.796Z,2.30
2019-05-25T06:40:29.811Z,2.90
2019-05-25T06:41:29.830Z,2.80
2019-05-25T06:42:30.018Z,2.70
2019-05-25T06:43:29.860Z,2.60
2019-05-25T06:44:29.869Z,2.80
2019-05-25T06:45:29.884Z,2.50
2019-05-25T06:46:30.199Z,2.50
2019-05-25T06:48:30.248Z,2.30
2019-05-25T06:49:29.964Z,2.40
2019-05-25T06:50:29.956Z,2.30
2019-05-25T06:51:29.971Z,2.10
2019-05-25T06:52:29.984Z,2.10
2019-05-25T06:53:30.149Z,2.30
2019-05-25T06:54:30.016Z,2.50
2019-05-25T06:55:30.105Z,2.40
2019-05-25T06:56:30.043Z,2.20
2019-05-25T06:57:42.045Z,2.10
2019-05-25T06:58:30.118Z,2.40
2019-05-25T06:59:30.083Z,2.10
2019-05-25T07:00:30.104Z,2.00
2019-05-25T07:01:30.119Z,2.00
2019-05-25T07:02:30.133Z,2.00
2019-05-25T07:03:30.191Z,1.90
2019-05-25T07:04:30.155Z,2.20
2019-05-25T07:05:30.197Z,2.20
2019-05-25T07:06:30.184Z,2.00
2019-05-25T07:07:30.198Z,1.80
2019-05-25T07:08:30.272Z,2.10
2019-05-25T07:09:30.249Z,2.00
2019-05-25T07:10:30.265Z,1.80
2019-05-25T07:11:30.299Z,1.90
2019-05-25T07:12:30.335Z,2.00
2019-05-25T07:13:30.327Z,1.90
2019-05-25T07:14:30.416Z,2.10
2019-05-25T07:15:30.321Z,2.00
2019-05-25T07:17:30.646Z,1.80
2019-05-25T07:18:30.381Z,1.80
2019-05-25T07:19:30.373Z,2.20
2019-05-25T07:20:30.394Z,2.00
2019-05-25T07:21:30.401Z,2.10
2019-05-25T07:22:30.432Z,2.30
2019-05-25T07:23:31.605Z,2.00
2019-05-25T07:24:30.598Z,2.30
2019-05-25T07:25:30.478Z,1.80
2019-05-25T07:26:31.251Z,2.10
2019-05-25T07:27:30.496Z,1.90
2019-05-25T07:28:30.513Z,2.20
2019-05-25T07:29:30.537Z,2.20
2019-05-25T07:30:30.563Z,2.60
2019-05-25T07:31:30.712Z,2.20
2019-05-25T07:32:30.638Z,2.20
2019-05-25T07:33:30.588Z,2.60
2019-05-25T07:34:31.474Z,2.20
2019-05-25T07:35:30.638Z,2.10
2019-05-25T07:36:30.635Z,2.20
2019-05-25T07:37:30.689Z,2.20
2019-05-25T07:38:30.699Z,2.30
2019-05-25T07:39:30.689Z,2.40
2019-05-25T07:40:30.721Z,2.00
2019-05-25T07:41:30.728Z,2.10
2019-05-25T07:42:30.731Z,2.40
2019-05-25T07:44:30.785Z,2.10
2019-05-25T07:45:30.781Z,2.30
2019-05-25T07:47:30.805Z,2.20
2019-05-25T07:48:30.928Z,2.50
2019-05-25T07:50:30.836Z,2.30
2019-05-25T07:51:31.793Z,2.50
2019-05-25T07:52:31.988Z,2.10
2019-05-25T07:53:31.006Z,2.50
2019-05-25T07:54:31.827Z,2.20
2019-05-25T07:55:31.727Z,2.50
2019-05-25T07:56:31.064Z,2.40
2019-05-25T07:57:31.359Z,2.30
2019-05-25T07:58:31.206Z,2.30
2019-05-25T07:59:32.769Z,2.00
2019-05-25T08:00:31.131Z,2.00
2019-05-25T08:01:31.249Z,2.60
2019-05-25T08:02:31.239Z,2.40
2019-05-25T08:03:31.410Z,2.10
2019-05-25T08:05:31.810Z,2.30
2019-05-25T08:07:31.257Z,2.50
2019-05-25T08:08:31.229Z,2.20
2019-05-25T08:09:31.185Z,2.10
2019-05-25T08:11:31.263Z,2.60
2019-05-25T08:12:31.895Z,2.20
2019-05-25T08:13:31.223Z,2.10
2019-05-25T08:14:31.431Z,2.60
2019-05-25T08:15:31.442Z,2.40
2019-05-25T08:16:31.258Z,2.30
2019-05-25T08:17:31.660Z,2.40
2019-05-25T08:18:31.261Z,2.70
2019-05-25T08:19:31.287Z,2.40
2019-05-25T08:20:31.766Z,2.80
2019-05-25T08:21:31.348Z,2.40
2019-05-25T08:22:32.820Z,2.30
2019-05-25T08:23:32.491Z,2.40
2019-05-25T08:26:31.713Z,2.20
2019-05-25T08:27:31.460Z,2.40
2019-05-25T08:28:33.313Z,2.40
2019-05-25T08:29:31.518Z,2.20
2019-05-25T08:30:31.583Z,2.40
2019-05-25T08:31:31.687Z,2.20
2019-05-25T08:32:31.479Z,2.60
2019-05-25T08:33:31.633Z,2.60
2019-05-25T08:34:31.683Z,2.60
2019-05-25T08:35:31.536Z,2.40
2019-05-25T08:36:31.903Z,2.40
2019-05-25T08:37:31.931Z,2.40
2019-05-25T08:38:31.596Z,2.50
2019-05-25T08:39:31.660Z,2.20
2019-05-25T08:40:31.617Z,2.30
2019-05-25T08:41:31.615Z,2.10
2019-05-25T08:43:32.394Z,2.50
2019-05-25T08:44:31.878Z,2.40
2019-05-25T08:45:31.880Z,2.20
2019-05-25T08:47:31.757Z,2.20
2019-05-25T08:48:31.782Z,2.20
2019-05-25T08:49:31.918Z,2.20
2019-05-25T08:50:38.261Z,2.20
2019-05-25T08:51:32.060Z,2.00
2019-05-25T08:52:31.789Z,2.70
2019-05-25T08:53:41.433Z,2.40
2019-05-25T08:54:31.865Z,2.20
2019-05-25T08:55:31.889Z,2.10
2019-05-25T08:56:32.412Z,2.50
2019-05-25T08:57:31.932Z,2.10
2019-05-25T08:58:47.193Z,2.50
2019-05-25T08:59:31.883Z,2.30
2019-05-25T09:00:31.901Z,1.90
2019-05-25T09:01:32.039Z,2.00
2019-05-25T09:03:32.011Z,2.30
2019-05-25T09:04:32.021Z,2.40
2019-05-25T09:05:32.061Z,2.10
2019-05-25T09:06:32.575Z,2.80
2019-05-25T09:07:32.053Z,2.20
2019-05-25T09:09:32.149Z,2.40
2019-05-25T09:10:32.237Z,2.40
2019-05-25T09:11:32.109Z,2.40
2019-05-25T09:12:32.466Z,2.60
2019-05-25T09:13:32.375Z,2.40
2019-05-25T09:15:32.136Z,2.30
2019-05-25T09:16:32.171Z,2.60
2019-05-25T09:17:32.749Z,2.50
2019-05-25T09:19:32.198Z,2.30
2019-05-25T09:20:32.510Z,3.00
2019-05-25T09:21:32.226Z,2.30
2019-05-25T09:22:32.313Z,2.60
2019-05-25T09:23:32.278Z,2.80
2019-05-25T09:24:32.448Z,2.40
2019-05-25T09:25:32.743Z,2.50
2019-05-25T09:26:32.398Z,2.50
2019-05-25T09:27:32.328Z,2.70
2019-05-25T09:28:32.469Z,2.90
2019-05-25T09:29:32.717Z,2.50
2019-05-25T09:30:32.369Z,2.50
2019-05-25T09:31:32.408Z,2.50
2019-05-25T09:32:32.406Z,2.70
2019-05-25T09:33:32.478Z,2.60
2019-05-25T09:35:32.651Z,3.00
2019-05-25T09:36:32.479Z,2.80
2019-05-25T09:37:32.480Z,2.70
2019-05-25T09:38:32.785Z,2.80
2019-05-25T09:39:32.561Z,2.60
2019-05-25T09:40:32.582Z,2.50
2019-05-25T09:41:32.625Z,2.80
2019-05-25T09:43:34.005Z,3.30
2019-05-25T09:44:33.053Z,2.80
2019-05-25T09:45:32.633Z,2.60
2019-05-25T09:47:32.772Z,2.40
2019-05-25T09:48:32.651Z,2.60
2019-05-25T09:49:32.996Z,2.60
2019-05-25T09:50:32.690Z,3.30
2019-05-25T09:51:32.694Z,2.90
2019-05-25T09:52:32.714Z,2.60
2019-05-25T09:53:32.902Z,2.70
2019-05-25T09:54:32.734Z,2.50
2019-05-25T09:56:32.816Z,2.60
2019-05-25T09:57:33.443Z,2.80
2019-05-25T09:59:32.831Z,2.60
2019-05-25T10:00:32.950Z,2.60
2019-05-25T10:01:33.302Z,2.70
2019-05-25T10:02:33.383Z,2.70
2019-05-25T10:03:33.351Z,2.60
2019-05-25T10:04:32.899Z,2.90
2019-05-25T10:06:32.925Z,2.20
2019-05-25T10:07:33.025Z,2.40
2019-05-25T10:08:32.990Z,3.40
2019-05-25T10:10:33.363Z,2.40
2019-05-25T10:11:33.004Z,2.80
2019-05-25T10:12:33.032Z,2.70
2019-05-25T10:13:33.146Z,2.40
2019-05-25T10:14:33.072Z,2.80
2019-05-25T10:15:33.094Z,2.50
2019-05-25T10:16:33.128Z,2.90
2019-05-25T10:19:33.165Z,2.80
2019-05-25T10:20:33.734Z,2.80
2019-05-25T10:21:33.162Z,3.10
2019-05-25T10:22:33.232Z,2.60
2019-05-25T10:23:33.407Z,2.30
2019-05-25T10:25:33.901Z,2.80
2019-05-25T10:27:34.343Z,2.50
2019-05-25T10:29:37.168Z,2.80
2019-05-25T10:30:33.333Z,2.80
2019-05-25T10:31:33.424Z,2.80
2019-05-25T10:32:33.687Z,3.00
2019-05-25T10:34:33.400Z,3.30
2019-05-25T10:35:33.382Z,3.20
2019-05-25T10:36:33.397Z,2.80
2019-05-25T10:38:34.466Z,3.10
2019-05-25T10:39:33.557Z,2.90
2019-05-25T10:40:33.491Z,3.00
2019-05-25T10:41:33.481Z,2.70
2019-05-25T10:42:33.503Z,2.70
2019-05-25T10:43:33.590Z,3.10
2019-05-25T10:44:33.575Z,3.00
2019-05-25T10:45:33.566Z,3.00
2019-05-25T10:47:34.275Z,3.00
2019-05-25T10:48:33.628Z,3.00
2019-05-25T10:49:33.613Z,3.30
2019-05-25T10:50:33.657Z,3.20
2019-05-25T10:51:33.654Z,3.10
2019-05-25T10:52:33.843Z,3.60
2019-05-25T10:53:33.867Z,3.10
2019-05-25T10:54:36.946Z,3.20
2019-05-25T10:55:33.735Z,3.30
2019-05-25T10:58:34.819Z,3.60
2019-05-25T10:59:34.003Z,3.20
2019-05-25T11:00:33.921Z,3.50
2019-05-25T11:01:33.954Z,3.60
2019-05-25T11:02:33.871Z,3.30
2019-05-25T11:03:33.928Z,3.40
2019-05-25T11:04:34.016Z,3.70
2019-05-25T11:05:34.052Z,4.40
2019-05-25T11:06:34.982Z,3.50
2019-05-25T11:07:33.911Z,4.00
2019-05-25T11:09:33.990Z,3.30
2019-05-25T11:11:33.992Z,3.50
2019-05-25T11:12:33.976Z,5.20
2019-05-25T11:13:34.045Z,3.00
2019-05-25T11:14:34.688Z,3.10
2019-05-25T11:15:34.044Z,3.60
2019-05-25T11:16:34.095Z,3.50
2019-05-25T11:17:35.429Z,3.10
2019-05-25T11:18:34.073Z,3.30
2019-05-25T11:19:34.340Z,3.10
2019-05-25T11:20:34.175Z,3.10
2019-05-25T11:21:34.116Z,3.50
2019-05-25T11:22:34.134Z,3.40
2019-05-25T11:23:34.198Z,3.00
2019-05-25T11:24:34.166Z,2.90
2019-05-25T11:26:34.236Z,3.30
2019-05-25T11:27:34.669Z,5.30
2019-05-25T11:28:34.305Z,3.40
2019-05-25T11:29:34.455Z,3.40
2019-05-25T11:30:34.559Z,3.50
2019-05-25T11:31:34.408Z,2.70
2019-05-25T11:32:34.390Z,3.00
2019-05-25T11:33:36.459Z,2.70
2019-05-25T11:34:34.322Z,3.00
2019-05-25T11:36:34.356Z,3.20
2019-05-25T11:37:34.580Z,3.30
2019-05-25T11:38:34.412Z,3.40
2019-05-25T11:39:34.482Z,3.10
2019-05-25T11:40:34.554Z,2.70
2019-05-25T11:41:35.137Z,4.10
2019-05-25T11:42:34.522Z,3.00
2019-05-25T11:44:34.485Z,3.40
2019-05-25T11:45:34.508Z,2.90
2019-05-25T11:46:35.340Z,3.10
2019-05-25T11:48:34.555Z,3.70
2019-05-25T11:49:34.926Z,3.30
2019-05-25T11:50:34.622Z,3.40
2019-05-25T11:51:34.602Z,3.20
2019-05-25T11:52:34.633Z,3.40
2019-05-25T11:53:34.646Z,3.30
2019-05-25T11:54:34.874Z,3.50
2019-05-25T11:56:34.703Z,3.30
2019-05-25T11:57:34.714Z,3.10
2019-05-25T11:58:47.117Z,5.00
2019-05-25T11:59:34.760Z,4.10
2019-05-25T12:00:34.948Z,7.50
2019-05-25T12:01:34.780Z,3.10
2019-05-25T12:02:34.779Z,3.00
2019-05-25T12:03:34.812Z,3.10
2019-05-25T12:04:34.813Z,2.80
2019-05-25T12:05:34.824Z,2.90
2019-05-25T12:06:34.846Z,2.40
2019-05-25T12:07:35.017Z,2.50
2019-05-25T12:08:34.897Z,2.80
2019-05-25T12:09:34.899Z,2.90
2019-05-25T12:10:34.909Z,2.80
2019-05-25T12:11:34.932Z,3.00
2019-05-25T12:12:34.947Z,2.90
2019-05-25T12:13:35.032Z,3.00
2019-05-25T12:14:35.020Z,2.90
2019-05-25T12:15:35.130Z,2.70
2019-05-25T12:16:35.037Z,2.90
2019-05-25T12:17:35.031Z,3.00
2019-05-25T12:18:35.186Z,2.50
2019-05-25T12:19:35.088Z,3.00
2019-05-25T12:21:35.123Z,2.90
2019-05-25T12:23:35.219Z,3.60
2019-05-25T12:24:35.169Z,3.60
2019-05-25T12:25:35.193Z,3.10
2019-05-25T12:26:35.188Z,3.30
2019-05-25T12:27:35.190Z,3.40
2019-05-25T12:28:35.667Z,2.80
2019-05-25T12:29:35.235Z,3.70
2019-05-25T12:30:40.825Z,4.10
2019-05-25T12:31:35.269Z,3.00
2019-05-25T12:32:35.675Z,3.40
2019-05-25T12:33:35.315Z,2.90
2019-05-25T12:34:35.556Z,3.20
2019-05-25T12:35:35.340Z,3.10
2019-05-25T12:36:35.423Z,3.20
2019-05-25T12:38:35.423Z,3.40
2019-05-25T12:39:35.412Z,3.60
2019-05-25T12:40:35.423Z,3.00
2019-05-25T12:42:35.469Z,3.20
2019-05-25T12:43:36.119Z,3.40
2019-05-25T12:44:35.500Z,3.30
2019-05-25T12:45:35.509Z,3.50
2019-05-25T12:46:35.529Z,3.00
2019-05-25T12:47:35.536Z,2.80
2019-05-25T12:48:35.585Z,2.80
2019-05-25T12:49:49.957Z,2.90
2019-05-25T12:50:35.828Z,2.60
2019-05-25T12:51:35.619Z,2.90
2019-05-25T12:52:35.702Z,2.80
2019-05-25T12:53:35.917Z,3.00
2019-05-25T12:54:35.705Z,3.10
2019-05-25T12:55:35.698Z,3.00
2019-05-25T12:56:35.812Z,2.70
2019-05-25T12:57:35.730Z,3.10
2019-05-25T12:58:35.773Z,2.90
2019-05-25T12:59:35.772Z,2.70
2019-05-25T13:00:35.906Z,2.80
2019-05-25T13:01:35.882Z,2.70
2019-05-25T13:02:36.121Z,3.00
2019-05-25T13:03:35.945Z,3.10
2019-05-25T13:05:36.286Z,3.10
2019-05-25T13:06:36.358Z,3.20
2019-05-25T13:09:36.525Z,3.20
2019-05-25T13:10:36.036Z,3.30
2019-05-25T13:11:36.040Z,3.80
2019-05-25T13:13:36.267Z,3.50
2019-05-25T13:14:36.549Z,3.60
2019-05-25T13:15:36.150Z,3.50
2019-05-25T13:16:36.174Z,3.30
2019-05-25T13:17:36.124Z,3.50
2019-05-25T13:18:36.234Z,3.50
2019-05-25T13:19:36.168Z,3.40
2019-05-25T13:20:36.184Z,3.50
2019-05-25T13:21:36.193Z,3.20
2019-05-25T13:22:36.223Z,3.60
2019-05-25T13:24:36.275Z,3.70
2019-05-25T13:25:36.487Z,3.80
2019-05-25T13:26:36.286Z,3.40
2019-05-25T13:27:36.919Z,3.80
2019-05-25T13:28:36.428Z,3.80
2019-05-25T13:29:36.344Z,3.30
2019-05-25T13:30:36.394Z,3.00
2019-05-25T13:31:36.550Z,3.70
2019-05-25T13:32:36.397Z,3.20
2019-05-25T13:33:36.727Z,3.40
2019-05-25T13:34:37.104Z,3.50
2019-05-25T13:35:37.953Z,3.20
2019-05-25T13:36:37.220Z,3.40
2019-05-25T13:37:36.519Z,3.30
2019-05-25T13:39:37.124Z,3.40
2019-05-25T13:40:36.582Z,3.70
2019-05-25T13:41:36.614Z,3.60
2019-05-25T13:42:36.623Z,3.50
2019-05-25T13:43:36.617Z,3.50
2019-05-25T13:44:36.635Z,3.70
2019-05-25T13:45:37.394Z,3.20
2019-05-25T13:46:37.295Z,3.50
2019-05-25T13:47:36.690Z,3.10
2019-05-25T13:48:36.731Z,3.90
2019-05-25T13:49:36.772Z,3.80
2019-05-25T13:50:36.758Z,4.50
2019-05-25T13:51:36.770Z,3.80
2019-05-25T13:52:36.850Z,3.80
2019-05-25T13:53:36.813Z,3.20
2019-05-25T13:54:37.763Z,3.60
2019-05-25T13:55:36.846Z,3.60
2019-05-25T13:56:36.872Z,3.40
2019-05-25T13:57:37.424Z,3.50
2019-05-25T13:58:39.171Z,3.30
2019-05-25T13:59:37.061Z,3.70
2019-05-25T14:00:37.165Z,3.70
2019-05-25T14:01:37.006Z,3.70
2019-05-25T14:02:37.345Z,3.80
2019-05-25T14:03:37.023Z,3.90
2019-05-25T14:04:37.027Z,3.80
2019-05-25T14:06:37.466Z,3.40
2019-05-25T14:07:37.092Z,3.70
2019-05-25T14:08:37.241Z,3.50
2019-05-25T14:09:37.255Z,3.70
2019-05-25T14:10:37.166Z,3.60
2019-05-25T14:11:37.677Z,3.90
2019-05-25T14:12:37.201Z,4.00
2019-05-25T14:13:37.230Z,4.00
2019-05-25T14:14:37.285Z,3.70
2019-05-25T14:15:37.252Z,4.00
2019-05-25T14:16:37.292Z,3.90
2019-05-25T14:17:37.296Z,3.40
2019-05-25T14:18:37.609Z,3.50
2019-05-25T14:19:41.137Z,3.10
2019-05-25T14:20:37.525Z,3.60
2019-05-25T14:21:37.601Z,3.50
2019-05-25T14:22:37.421Z,3.50
2019-05-25T14:23:37.482Z,3.50
2019-05-25T14:24:37.558Z,3.70
2019-05-25T14:25:37.499Z,4.00
2019-05-25T14:26:37.637Z,3.70
2019-05-25T14:27:37.531Z,3.80
2019-05-25T14:28:37.552Z,3.30
2019-05-25T14:29:38.062Z,3.60